createdAt,value
2022-10-26T00:01:14.906Z,11.00
2022-10-26T00:06:20.731Z,10.63
2022-10-26T00:08:48.030Z,9.82
2022-10-26T00:11:15.220Z,9.50
2022-10-26T00:13:42.486Z,8.80
2022-10-26T00:16:10.823Z,9.80
2022-10-26T00:18:37.742Z,8.82
2022-10-26T00:21:05.905Z,10.93
2022-10-26T00:23:33.494Z,9.18
2022-10-26T00:26:00.446Z,8.45
2022-10-26T00:28:27.613Z,10.13
2022-10-26T00:30:54.420Z,8.98
2022-10-26T00:33:21.274Z,17.55
2022-10-26T00:35:49.382Z,8.13
2022-10-26T00:38:16.169Z,8.00
2022-10-26T00:40:44.386Z,14.32
2022-10-26T00:43:20.498Z,12.98
2022-10-26T00:45:48.816Z,9.20
2022-10-26T00:48:38.414Z,12.10
2022-10-26T00:51:09.450Z,11.60
2022-10-26T00:56:03.636Z,11.13
2022-10-26T00:58:30.734Z,13.30
2022-10-26T01:00:57.556Z,12.48
2022-10-26T01:03:28.194Z,13.18
2022-10-26T01:05:57.248Z,15.02
2022-10-26T01:08:24.338Z,15.63
2022-10-26T01:10:51.886Z,11.30
2022-10-26T01:13:18.944Z,14.70
2022-10-26T01:16:07.189Z,12.40
2022-10-26T01:18:41.268Z,9.80
2022-10-26T01:21:28.162Z,10.85
2022-10-26T01:24:10.905Z,13.15
2022-10-26T01:27:05.708Z,14.93
2022-10-26T01:29:41.576Z,13.20
2022-10-26T01:32:35.566Z,19.38
2022-10-26T01:35:11.668Z,9.98
2022-10-26T01:37:46.686Z,13.30
2022-10-26T01:40:21.652Z,11.48
2022-10-26T01:42:50.644Z,9.82
2022-10-26T01:45:18.222Z,14.77
2022-10-26T01:47:47.663Z,18.80
2022-10-26T01:50:15.504Z,8.77
2022-10-26T01:52:42.319Z,10.90
2022-10-26T01:55:40.257Z,17.10
2022-10-26T01:58:25.043Z,11.52
2022-10-26T02:01:34.148Z,7.75
2022-10-26T02:07:16.946Z,13.52
2022-10-26T02:10:08.006Z,10.48
2022-10-26T02:12:50.059Z,10.07
2022-10-26T02:15:19.624Z,14.70
2022-10-26T02:18:00.135Z,13.20
2022-10-26T02:20:42.575Z,13.27
2022-10-26T02:23:10.188Z,18.30
2022-10-26T02:25:48.967Z,15.48
2022-10-26T02:28:20.219Z,16.17
2022-10-26T02:30:47.827Z,20.52
2022-10-26T02:33:15.467Z,14.52
2022-10-26T02:35:43.770Z,13.98
2022-10-26T02:38:11.940Z,15.38
2022-10-26T02:40:39.406Z,11.65
2022-10-26T02:43:15.809Z,14.32
2022-10-26T02:45:52.380Z,12.07
2022-10-26T02:48:19.376Z,18.92
2022-10-26T02:50:55.162Z,8.10
2022-10-26T02:53:29.895Z,12.68
2022-10-26T02:55:59.002Z,11.82
2022-10-26T02:58:31.420Z,10.68
2022-10-26T03:00:58.305Z,6.35
2022-10-26T03:03:25.398Z,16.10
2022-10-26T03:05:52.264Z,12.23
2022-10-26T03:08:19.014Z,7.53
2022-10-26T03:10:46.304Z,8.65
2022-10-26T03:13:14.024Z,11.05
2022-10-26T03:15:41.447Z,11.95
2022-10-26T03:18:08.605Z,7.63
2022-10-26T03:20:35.637Z,6.65
2022-10-26T03:23:02.416Z,6.03
2022-10-26T03:25:29.280Z,5.88
2022-10-26T03:28:03.262Z,9.32
2022-10-26T03:30:31.288Z,6.88
2022-10-26T03:32:58.187Z,8.63
2022-10-26T03:35:25.024Z,7.97
2022-10-26T03:37:52.379Z,5.72
2022-10-26T03:40:19.332Z,7.40
2022-10-26T03:42:46.188Z,6.55
2022-10-26T03:45:13.075Z,6.95
2022-10-26T03:47:45.082Z,11.90
2022-10-26T03:50:12.677Z,9.70
2022-10-26T03:52:39.608Z,8.90
2022-10-26T03:55:07.259Z,8.88
2022-10-26T03:57:34.125Z,10.25
2022-10-26T04:00:01.249Z,8.65
2022-10-26T04:02:38.401Z,8.23
2022-10-26T04:05:05.677Z,11.93
2022-10-26T04:07:32.460Z,10.75
2022-10-26T04:09:59.283Z,10.10
2022-10-26T04:12:26.120Z,9.65
2022-10-26T04:14:53.072Z,10.57
2022-10-26T04:17:19.929Z,15.07
2022-10-26T04:19:46.767Z,8.82
2022-10-26T04:22:13.498Z,11.82
2022-10-26T04:24:40.299Z,13.50
2022-10-26T04:27:07.049Z,15.00
2022-10-26T04:29:34.011Z,10.32
2022-10-26T04:32:00.771Z,12.43
2022-10-26T04:34:27.578Z,15.68
2022-10-26T04:36:55.008Z,15.43
2022-10-26T04:39:21.826Z,12.38
2022-10-26T04:41:48.522Z,12.40
2022-10-26T04:44:15.723Z,10.50
2022-10-26T04:46:42.492Z,12.18
2022-10-26T04:49:09.357Z,11.05
2022-10-26T04:51:36.143Z,13.02
2022-10-26T04:54:03.738Z,12.68
2022-10-26T04:56:30.596Z,17.67
2022-10-26T04:58:57.495Z,17.40
2022-10-26T05:01:24.501Z,14.43
2022-10-26T05:03:53.315Z,17.33
2022-10-26T05:06:21.288Z,12.73
2022-10-26T05:08:48.205Z,11.48
2022-10-26T05:11:15.083Z,12.95
2022-10-26T05:13:42.095Z,13.20
2022-10-26T05:16:08.856Z,11.38
2022-10-26T05:18:38.162Z,11.80
2022-10-26T05:21:05.117Z,10.52
2022-10-26T05:23:31.864Z,11.25
2022-10-26T05:25:58.593Z,9.38
2022-10-26T05:28:25.480Z,11.07
2022-10-26T05:30:52.257Z,6.80
2022-10-26T05:33:19.234Z,7.40
2022-10-26T05:35:46.104Z,5.90
2022-10-26T05:38:17.526Z,5.00
2022-10-26T05:41:02.563Z,5.18
2022-10-26T05:43:30.329Z,7.50
2022-10-26T05:45:57.079Z,5.32
2022-10-26T05:48:23.931Z,4.53
2022-10-26T05:50:50.745Z,8.43
2022-10-26T05:53:17.733Z,5.25
2022-10-26T05:55:45.979Z,8.15
2022-10-26T05:58:15.067Z,12.43
2022-10-26T06:00:55.543Z,14.50
2022-10-26T06:03:32.738Z,12.02
2022-10-26T06:06:02.573Z,9.27
2022-10-26T06:08:32.413Z,7.78
2022-10-26T06:11:03.186Z,14.07
2022-10-26T06:13:30.399Z,10.45
2022-10-26T06:16:23.414Z,6.22
2022-10-26T06:19:19.189Z,10.95
2022-10-26T06:22:12.262Z,6.82
2022-10-26T06:25:04.597Z,6.20
2022-10-26T06:28:00.852Z,10.15
2022-10-26T06:30:27.825Z,7.97
2022-10-26T06:33:05.908Z,5.72
2022-10-26T06:35:41.361Z,13.63
2022-10-26T06:38:12.187Z,7.60
2022-10-26T06:40:41.219Z,7.97
2022-10-26T06:43:18.995Z,8.75
2022-10-26T06:45:48.916Z,9.63
2022-10-26T06:48:19.959Z,8.93
2022-10-26T06:50:51.853Z,8.60
2022-10-26T06:53:20.725Z,10.23
2022-10-26T06:55:49.884Z,9.13
2022-10-26T06:58:19.408Z,9.63
2022-10-26T07:00:49.441Z,14.05
2022-10-26T07:03:16.786Z,20.03
2022-10-26T07:05:44.321Z,11.82
2022-10-26T07:08:12.078Z,16.42
2022-10-26T07:10:39.588Z,23.20
2022-10-26T07:13:06.975Z,16.75
2022-10-26T07:15:34.468Z,13.88
2022-10-26T07:18:01.592Z,11.90
2022-10-26T07:20:28.544Z,13.85
2022-10-26T07:22:56.714Z,10.70
2022-10-26T07:25:25.194Z,12.40
2022-10-26T07:27:52.678Z,16.77
2022-10-26T07:30:19.594Z,17.38
2022-10-26T07:32:47.112Z,11.65
2022-10-26T07:35:14.715Z,12.57
2022-10-26T07:37:41.453Z,16.33
2022-10-26T07:40:08.701Z,14.60
2022-10-26T07:42:37.205Z,16.63
2022-10-26T07:45:04.541Z,20.50
2022-10-26T07:47:31.349Z,16.70
2022-10-26T07:49:58.122Z,16.52
2022-10-26T07:52:25.066Z,20.55
2022-10-26T07:54:51.941Z,18.48
2022-10-26T07:57:18.863Z,26.27
2022-10-26T07:59:45.618Z,14.65
2022-10-26T08:02:12.539Z,12.23
2022-10-26T08:04:39.394Z,15.93
2022-10-26T08:07:06.184Z,25.48
2022-10-26T08:09:33.221Z,21.02
2022-10-26T08:12:00.169Z,18.05
2022-10-26T08:14:26.902Z,18.75
2022-10-26T08:16:53.743Z,27.80
2022-10-26T08:19:20.524Z,26.02
2022-10-26T08:21:47.437Z,30.30
2022-10-26T08:24:14.245Z,26.73
2022-10-26T08:26:41.598Z,22.83
2022-10-26T08:29:08.430Z,28.42
2022-10-26T08:31:35.278Z,25.80
2022-10-26T08:34:04.079Z,30.80
2022-10-26T08:36:31.339Z,20.58
2022-10-26T08:41:45.341Z,23.05
2022-10-26T08:44:36.023Z,24.63
2022-10-26T08:47:21.705Z,23.30
2022-10-26T08:50:15.284Z,23.70
2022-10-26T08:52:49.029Z,25.17
2022-10-26T08:55:18.668Z,16.70
2022-10-26T08:57:48.349Z,18.63
2022-10-26T09:00:19.255Z,21.67
2022-10-26T09:02:50.698Z,16.75
2022-10-26T09:05:21.691Z,21.88
2022-10-26T09:11:12.909Z,14.23
2022-10-26T09:14:17.721Z,15.25
2022-10-26T09:17:15.427Z,25.60
2022-10-26T09:19:44.982Z,23.50
2022-10-26T09:22:11.812Z,23.10
2022-10-26T09:24:51.979Z,27.38
2022-10-26T09:27:24.519Z,19.07
2022-10-26T09:29:51.610Z,25.25
2022-10-26T09:32:26.942Z,28.08
2022-10-26T09:34:57.172Z,25.85
2022-10-26T09:37:28.996Z,30.50
2022-10-26T09:40:07.589Z,21.60
2022-10-26T09:42:48.963Z,26.30
2022-10-26T09:45:20.639Z,14.13
2022-10-26T09:47:55.102Z,14.57
2022-10-26T09:50:39.732Z,13.88
2022-10-26T09:53:06.531Z,17.73
2022-10-26T09:55:34.778Z,12.38
2022-10-26T09:58:03.466Z,13.82
2022-10-26T10:00:31.019Z,14.38
2022-10-26T10:02:58.984Z,16.42
2022-10-26T10:08:19.987Z,15.85
2022-10-26T10:11:03.159Z,14.40
2022-10-26T10:13:43.719Z,18.35
2022-10-26T10:16:21.351Z,17.98
2022-10-26T10:18:58.703Z,10.90
2022-10-26T10:21:40.222Z,10.63
2022-10-26T10:24:30.019Z,10.98
2022-10-26T10:27:04.256Z,13.30
2022-10-26T10:29:33.859Z,16.67
2022-10-26T10:32:02.465Z,13.65
2022-10-26T10:34:33.042Z,14.18
2022-10-26T10:37:01.017Z,9.23
2022-10-26T10:39:37.782Z,10.93
2022-10-26T10:42:11.423Z,14.98
2022-10-26T10:44:38.253Z,14.50
2022-10-26T10:47:06.969Z,9.48
2022-10-26T10:49:34.355Z,3.42
2022-10-26T10:52:01.170Z,4.22
2022-10-26T10:54:33.474Z,3.03
2022-10-26T10:57:29.924Z,2.28
2022-10-26T11:00:04.043Z,2.03
2022-10-26T11:02:49.716Z,3.50
2022-10-26T11:05:44.391Z,2.85
2022-10-26T11:08:16.456Z,4.03
2022-10-26T11:10:50.494Z,1.38
2022-10-26T11:13:22.205Z,0.98
2022-10-26T11:15:54.780Z,2.85
2022-10-26T11:18:47.962Z,1.38
2022-10-26T11:21:26.206Z,1.60
2022-10-26T11:23:57.413Z,0.45
2022-10-26T11:26:31.927Z,1.00
2022-10-26T11:29:02.552Z,0.65
2022-10-26T11:31:41.214Z,1.20
2022-10-26T11:34:24.070Z,0.55
2022-10-26T11:36:57.511Z,2.05
2022-10-26T11:39:33.573Z,0.80
2022-10-26T11:42:09.289Z,1.35
2022-10-26T11:44:41.088Z,0.40
2022-10-26T11:47:16.491Z,0.65
2022-10-26T11:49:45.322Z,0.40
2022-10-26T11:52:19.639Z,1.30
2022-10-26T11:54:57.284Z,0.57
2022-10-26T11:57:25.228Z,0.30
2022-10-26T11:59:54.806Z,0.75
2022-10-26T12:02:23.726Z,1.92
2022-10-26T12:05:16.466Z,1.20
2022-10-26T12:07:55.622Z,0.75
2022-10-26T12:10:36.195Z,0.55
2022-10-26T12:13:18.063Z,2.15
2022-10-26T12:16:02.938Z,11.13
2022-10-26T12:19:00.779Z,3.28
2022-10-26T12:21:29.014Z,3.38
2022-10-26T12:24:00.219Z,4.30
2022-10-26T12:26:26.959Z,2.53
2022-10-26T12:29:02.698Z,0.40
2022-10-26T12:31:32.908Z,1.00
2022-10-26T12:34:00.448Z,1.60
2022-10-26T12:36:54.887Z,1.30
2022-10-26T12:39:40.673Z,1.65
2022-10-26T12:42:10.771Z,1.60
2022-10-26T12:44:42.034Z,1.70
2022-10-26T12:47:10.166Z,2.72
2022-10-26T12:50:01.936Z,3.78
2022-10-26T12:52:50.752Z,4.43
2022-10-26T12:55:17.997Z,3.38
2022-10-26T12:58:20.241Z,4.10
2022-10-26T13:00:59.152Z,4.63
2022-10-26T13:03:35.081Z,4.05
2022-10-26T13:06:14.127Z,3.38
2022-10-26T13:08:47.297Z,3.83
2022-10-26T13:11:38.329Z,4.47
2022-10-26T13:14:07.878Z,5.75
2022-10-26T13:16:35.061Z,7.20
2022-10-26T13:19:02.051Z,3.22
2022-10-26T13:21:28.893Z,4.93
2022-10-26T13:24:01.534Z,6.30
2022-10-26T13:26:30.252Z,5.95
2022-10-26T13:28:59.422Z,3.30
2022-10-26T13:31:28.951Z,7.63
2022-10-26T13:34:04.044Z,8.00
2022-10-26T13:36:37.500Z,6.18
2022-10-26T13:39:25.958Z,5.40
2022-10-26T13:41:54.307Z,5.78
2022-10-26T13:44:52.770Z,4.55
2022-10-26T13:47:29.877Z,7.13
2022-10-26T13:50:07.960Z,5.45
2022-10-26T13:52:46.896Z,4.72
2022-10-26T13:55:30.277Z,7.90
2022-10-26T13:58:31.913Z,9.48
2022-10-26T14:01:14.566Z,6.70
2022-10-26T14:03:42.322Z,7.68
2022-10-26T14:06:39.642Z,11.05
2022-10-26T14:09:12.735Z,5.25
2022-10-26T14:11:58.330Z,5.63
2022-10-26T14:14:45.356Z,7.38
2022-10-26T14:17:20.663Z,8.05
2022-10-26T14:19:48.371Z,7.43
2022-10-26T14:22:28.493Z,12.25
2022-10-26T14:24:57.493Z,12.03
2022-10-26T14:27:27.230Z,5.90
2022-10-26T14:30:22.034Z,7.85
2022-10-26T14:32:42.268Z,10.52
2022-10-26T14:35:13.985Z,6.70
2022-10-26T14:37:52.901Z,7.63
2022-10-26T14:40:25.224Z,4.72
2022-10-26T14:42:54.918Z,8.82
2022-10-26T14:45:50.330Z,8.68
2022-10-26T14:48:34.319Z,7.72
2022-10-26T14:51:11.251Z,12.05
2022-10-26T14:53:40.009Z,10.90
2022-10-26T14:56:38.760Z,8.70
2022-10-26T14:59:22.831Z,8.82
2022-10-26T15:01:54.715Z,13.52
2022-10-26T15:04:37.657Z,8.32
2022-10-26T15:07:13.517Z,11.88
2022-10-26T15:09:48.484Z,13.52
2022-10-26T15:12:33.366Z,9.63
2022-10-26T15:15:15.578Z,13.65
2022-10-26T15:18:05.096Z,11.45
2022-10-26T15:20:31.919Z,9.13
2022-10-26T15:23:00.803Z,9.07
2022-10-26T15:25:30.042Z,9.15
2022-10-26T15:28:20.650Z,9.57
2022-10-26T15:31:12.490Z,10.40
2022-10-26T15:33:49.457Z,8.48
2022-10-26T15:36:19.039Z,11.77
2022-10-26T15:38:48.120Z,10.93
2022-10-26T15:41:23.195Z,12.77
2022-10-26T15:43:51.705Z,14.15
2022-10-26T15:46:18.478Z,11.43
2022-10-26T15:48:49.964Z,12.15
2022-10-26T15:51:17.002Z,10.82
2022-10-26T15:53:43.747Z,9.57
2022-10-26T15:56:18.826Z,13.95
2022-10-26T15:58:46.016Z,10.68
2022-10-26T16:01:24.519Z,9.45
2022-10-26T16:03:52.476Z,11.93
2022-10-26T16:06:27.518Z,11.02
2022-10-26T16:08:56.161Z,10.85
2022-10-26T16:11:22.870Z,8.07
2022-10-26T16:16:22.129Z,6.60
2022-10-26T16:19:06.098Z,10.55
2022-10-26T16:21:39.171Z,13.57
2022-10-26T16:24:06.174Z,6.72
2022-10-26T16:26:33.035Z,8.82
2022-10-26T16:28:59.837Z,6.57
2022-10-26T16:31:26.749Z,9.45
2022-10-26T16:33:53.451Z,8.93
2022-10-26T16:36:20.309Z,12.70
2022-10-26T16:38:47.395Z,7.70
2022-10-26T16:41:17.138Z,10.13
2022-10-26T16:43:45.369Z,7.57
2022-10-26T16:46:14.611Z,6.47
2022-10-26T16:48:43.586Z,12.48
2022-10-26T16:51:10.454Z,6.13
2022-10-26T16:53:37.475Z,10.02
2022-10-26T16:56:06.831Z,7.95
2022-10-26T16:58:36.825Z,7.00
2022-10-26T17:01:05.605Z,6.95
2022-10-26T17:03:32.736Z,5.63
2022-10-26T17:06:02.446Z,7.72
2022-10-26T17:08:29.941Z,7.07
2022-10-26T17:11:22.812Z,8.82
2022-10-26T17:13:54.237Z,10.15
2022-10-26T17:16:22.439Z,7.63
2022-10-26T17:18:49.855Z,9.40
2022-10-26T17:21:18.993Z,9.30
2022-10-26T17:23:45.848Z,8.95
2022-10-26T17:26:14.265Z,10.68
2022-10-26T17:28:41.028Z,6.85
2022-10-26T17:31:12.997Z,8.70
2022-10-26T17:33:42.974Z,9.25
2022-10-26T17:36:11.523Z,7.43
2022-10-26T17:38:40.401Z,11.40
2022-10-26T17:41:09.925Z,10.05
2022-10-26T17:43:38.257Z,9.32
2022-10-26T17:46:07.334Z,10.85
2022-10-26T17:48:34.273Z,9.98
2022-10-26T17:51:02.387Z,6.43
2022-10-26T17:53:29.947Z,7.25
2022-10-26T17:56:03.539Z,8.02
2022-10-26T17:58:30.722Z,9.38
2022-10-26T18:01:01.300Z,9.85
2022-10-26T18:03:28.804Z,7.18
2022-10-26T18:05:55.626Z,10.18
2022-10-26T18:08:22.905Z,13.07
2022-10-26T18:10:51.575Z,10.50
2022-10-26T18:13:18.817Z,9.40
2022-10-26T18:15:45.960Z,11.30
2022-10-26T18:18:13.304Z,11.43
2022-10-26T18:20:40.080Z,6.60
2022-10-26T18:23:06.890Z,14.95
2022-10-26T18:25:33.988Z,12.50
2022-10-26T18:28:00.824Z,6.60
2022-10-26T18:30:27.861Z,13.90
2022-10-26T18:32:54.691Z,9.43
2022-10-26T18:35:21.663Z,4.95
2022-10-26T18:37:48.838Z,6.88
2022-10-26T18:40:16.124Z,8.27
2022-10-26T18:42:42.904Z,7.40
2022-10-26T18:45:09.958Z,15.93
2022-10-26T18:47:36.798Z,6.22
2022-10-26T18:50:03.631Z,10.15
2022-10-26T18:52:30.522Z,6.57
2022-10-26T18:54:57.334Z,8.07
2022-10-26T18:57:27.123Z,6.75
2022-10-26T18:59:54.981Z,5.35
2022-10-26T19:02:23.064Z,8.68
2022-10-26T19:04:53.092Z,7.10
2022-10-26T19:07:20.261Z,8.07
2022-10-26T19:09:46.935Z,8.18
2022-10-26T19:12:13.772Z,9.93
2022-10-26T19:14:40.547Z,7.82
2022-10-26T19:17:07.415Z,11.50
2022-10-26T19:19:34.190Z,5.90
2022-10-26T19:22:01.116Z,8.07
2022-10-26T19:24:27.904Z,9.50
2022-10-26T19:26:54.722Z,10.52
2022-10-26T19:29:21.752Z,10.38
2022-10-26T19:31:51.295Z,10.32
2022-10-26T19:34:18.099Z,11.45
2022-10-26T19:36:47.029Z,8.95
2022-10-26T19:39:15.325Z,9.52
2022-10-26T19:41:42.658Z,9.02
2022-10-26T19:44:10.891Z,13.73
2022-10-26T19:46:38.179Z,9.93
2022-10-26T19:49:05.123Z,9.10
2022-10-26T19:51:32.169Z,6.18
2022-10-26T19:54:03.972Z,7.80
2022-10-26T19:56:32.471Z,5.07
2022-10-26T19:58:59.461Z,6.53
2022-10-26T20:01:26.458Z,5.72
2022-10-26T20:03:53.398Z,10.38
2022-10-26T20:06:20.240Z,7.00
2022-10-26T20:08:48.533Z,11.98
2022-10-26T20:11:16.842Z,8.40
2022-10-26T20:13:45.051Z,8.50
2022-10-26T20:16:12.803Z,13.88
2022-10-26T20:18:44.002Z,10.18
2022-10-26T20:21:15.138Z,11.25
2022-10-26T20:23:42.835Z,9.60
2022-10-26T20:26:11.824Z,13.02
2022-10-26T20:28:44.655Z,13.00
2022-10-26T20:33:38.082Z,11.55
2022-10-26T20:36:05.054Z,9.18
2022-10-26T20:38:32.471Z,13.70
2022-10-26T20:40:59.942Z,10.88
2022-10-26T20:43:27.990Z,6.18
2022-10-26T20:45:56.160Z,9.38
2022-10-26T20:48:23.532Z,7.35
2022-10-26T20:50:54.979Z,6.78
2022-10-26T20:53:31.529Z,7.13
2022-10-26T20:56:00.545Z,7.97
2022-10-26T20:59:00.735Z,14.65
2022-10-26T21:01:38.320Z,7.45
2022-10-26T21:04:05.186Z,8.13
2022-10-26T21:06:40.258Z,7.22
2022-10-26T21:09:08.004Z,8.82
2022-10-26T21:11:34.983Z,5.03
2022-10-26T21:14:03.337Z,10.73
2022-10-26T21:16:30.160Z,11.77
2022-10-26T21:18:56.983Z,7.45
2022-10-26T21:21:23.648Z,10.48
2022-10-26T21:23:50.431Z,13.52
2022-10-26T21:26:17.217Z,8.15
2022-10-26T21:28:47.876Z,9.68
2022-10-26T21:31:17.189Z,6.18
2022-10-26T21:33:45.473Z,7.32
2022-10-26T21:36:12.796Z,3.72
2022-10-26T21:38:40.799Z,9.38
2022-10-26T21:41:11.973Z,7.53
2022-10-26T21:43:40.595Z,8.77
2022-10-26T21:46:07.707Z,6.32
2022-10-26T21:48:35.107Z,12.30
2022-10-26T21:51:03.143Z,10.70
2022-10-26T21:53:30.042Z,7.75
2022-10-26T21:56:05.434Z,5.43
2022-10-26T21:58:32.523Z,9.95
2022-10-26T22:01:06.350Z,6.10
2022-10-26T22:03:33.451Z,6.90
2022-10-26T22:06:00.828Z,7.13
2022-10-26T22:08:28.232Z,7.65
2022-10-26T22:10:55.412Z,7.65
2022-10-26T22:13:22.928Z,5.47
2022-10-26T22:15:49.700Z,4.85
2022-10-26T22:18:16.567Z,8.05
2022-10-26T22:20:43.245Z,4.55
2022-10-26T22:23:10.744Z,6.32
2022-10-26T22:25:37.443Z,5.65
2022-10-26T22:28:04.335Z,8.93
2022-10-26T22:30:31.555Z,6.68
2022-10-26T22:32:58.370Z,8.30
2022-10-26T22:35:29.335Z,8.13
2022-10-26T22:37:56.719Z,8.38
2022-10-26T22:40:23.497Z,6.85
2022-10-26T22:42:53.689Z,4.63
2022-10-26T22:45:20.655Z,4.13
2022-10-26T22:47:47.334Z,6.55
2022-10-26T22:50:14.141Z,4.53
2022-10-26T22:52:40.891Z,6.53
2022-10-26T22:55:08.132Z,6.03
2022-10-26T22:57:34.819Z,4.20
2022-10-26T23:00:01.687Z,2.63
2022-10-26T23:02:28.522Z,6.22
2022-10-26T23:04:55.287Z,5.68
2022-10-26T23:07:22.151Z,4.57
2022-10-26T23:09:48.913Z,7.00
2022-10-26T23:12:15.644Z,6.20
2022-10-26T23:14:42.420Z,5.90
2022-10-26T23:17:10.084Z,5.70
2022-10-26T23:19:36.926Z,5.80
2022-10-26T23:22:03.667Z,4.35
2022-10-26T23:24:30.401Z,6.57
2022-10-26T23:26:57.160Z,6.05
2022-10-26T23:29:23.937Z,4.55
2022-10-26T23:31:50.680Z,4.32
2022-10-26T23:34:17.453Z,3.25
2022-10-26T23:36:44.153Z,6.40
2022-10-26T23:39:10.866Z,5.72
2022-10-26T23:41:37.577Z,3.63
2022-10-26T23:44:04.596Z,3.53
2022-10-26T23:46:31.542Z,5.25
2022-10-26T23:48:58.320Z,2.10
2022-10-26T23:51:25.021Z,3.75
2022-10-26T23:53:51.848Z,3.72
2022-10-26T23:56:18.601Z,5.38
2022-10-26T23:58:49.865Z,3.33
